createdAt,value
2022-11-12T00:00:55.332Z,8.50
2022-11-12T00:03:43.625Z,8.50
2022-11-12T00:06:30.573Z,8.50
2022-11-12T00:09:17.562Z,8.50
2022-11-12T00:12:05.042Z,8.50
2022-11-12T00:14:52.712Z,8.50
2022-11-12T00:17:40.282Z,8.50
2022-11-12T00:20:28.878Z,8.50
2022-11-12T00:23:15.899Z,8.50
2022-11-12T00:26:03.143Z,8.50
2022-11-12T00:28:52.858Z,8.50
2022-11-12T00:31:39.802Z,8.50
2022-11-12T00:34:26.841Z,8.50
2022-11-12T00:37:14.917Z,8.50
2022-11-12T00:40:01.591Z,8.50
2022-11-12T00:42:48.562Z,8.50
2022-11-12T00:45:35.074Z,8.50
2022-11-12T00:48:22.338Z,8.50
2022-11-12T00:51:09.435Z,8.50
2022-11-12T00:53:57.597Z,8.50
2022-11-12T00:56:44.479Z,8.50
2022-11-12T00:59:31.598Z,8.50
2022-11-12T01:02:22.289Z,8.50
2022-11-12T01:05:09.732Z,8.50
2022-11-12T01:07:56.901Z,8.50
2022-11-12T01:10:45.087Z,8.50
2022-11-12T01:13:32.112Z,8.50
2022-11-12T01:16:20.873Z,8.50
2022-11-12T01:19:09.830Z,8.50
2022-11-12T01:21:56.798Z,8.50
2022-11-12T01:24:43.801Z,8.50
2022-11-12T01:27:32.089Z,8.50
2022-11-12T01:30:18.770Z,8.50
2022-11-12T01:33:05.500Z,8.50
2022-11-12T01:35:52.687Z,8.50
2022-11-12T01:38:40.514Z,8.50
2022-11-12T01:41:29.775Z,8.40
2022-11-12T01:44:20.574Z,8.40
2022-11-12T01:47:14.674Z,8.40
2022-11-12T01:50:13.761Z,8.40
2022-11-12T01:53:05.001Z,8.40
2022-11-12T01:55:52.961Z,8.40
2022-11-12T01:58:41.245Z,8.30
2022-11-12T02:01:29.626Z,8.30
2022-11-12T02:04:19.854Z,8.30
2022-11-12T02:07:08.621Z,8.30
2022-11-12T02:09:57.072Z,8.30
2022-11-12T02:13:02.539Z,8.30
2022-11-12T02:15:49.821Z,8.30
2022-11-12T02:18:38.188Z,8.30
2022-11-12T02:21:27.992Z,8.30
2022-11-12T02:24:34.912Z,8.30
2022-11-12T02:27:23.813Z,8.40
2022-11-12T02:30:11.369Z,8.30
2022-11-12T02:32:58.008Z,8.30
2022-11-12T02:35:44.964Z,8.40
2022-11-12T02:38:33.492Z,8.40
2022-11-12T02:41:20.436Z,8.40
2022-11-12T02:44:07.028Z,8.30
2022-11-12T02:46:53.944Z,8.30
2022-11-12T02:49:41.110Z,8.30
2022-11-12T02:52:27.850Z,8.30
2022-11-12T02:55:29.918Z,8.30
2022-11-12T02:58:16.867Z,8.20
2022-11-12T03:01:03.886Z,8.20
2022-11-12T03:03:51.154Z,8.20
2022-11-12T03:06:38.111Z,8.20
2022-11-12T03:09:24.986Z,8.20
2022-11-12T03:12:14.406Z,8.20
2022-11-12T03:15:01.334Z,8.20
2022-11-12T03:17:48.362Z,8.20
2022-11-12T03:20:38.738Z,8.10
2022-11-12T03:23:27.010Z,8.10
2022-11-12T03:26:13.845Z,8.10
2022-11-12T03:29:02.249Z,8.10
2022-11-12T03:31:49.521Z,8.10
2022-11-12T03:34:36.845Z,8.10
2022-11-12T03:37:23.774Z,8.10
2022-11-12T03:40:11.429Z,8.10
2022-11-12T03:42:59.274Z,8.10
2022-11-12T03:45:47.475Z,8.10
2022-11-12T03:48:34.596Z,8.00
2022-11-12T03:51:21.373Z,8.00
2022-11-12T03:54:09.718Z,8.00
2022-11-12T03:56:56.277Z,8.00
2022-11-12T03:59:43.172Z,7.90
2022-11-12T04:02:31.508Z,7.90
2022-11-12T04:05:36.332Z,7.90
2022-11-12T04:08:38.514Z,7.80
2022-11-12T04:11:25.556Z,7.80
2022-11-12T04:14:12.488Z,7.80
2022-11-12T04:17:17.374Z,7.80
2022-11-12T04:20:24.163Z,7.80
2022-11-12T04:23:11.308Z,7.80
2022-11-12T04:26:15.781Z,7.80
2022-11-12T04:29:20.152Z,7.80
2022-11-12T04:32:07.844Z,7.80
2022-11-12T04:34:55.054Z,7.80
2022-11-12T04:37:46.251Z,7.80
2022-11-12T04:40:51.246Z,7.80
2022-11-12T04:43:55.764Z,7.80
2022-11-12T04:46:42.415Z,7.70
2022-11-12T04:49:29.419Z,7.70
2022-11-12T04:52:16.740Z,7.70
2022-11-12T04:55:06.124Z,7.70
2022-11-12T04:58:00.373Z,7.70
2022-11-12T05:00:51.862Z,7.70
2022-11-12T05:03:38.662Z,7.70
2022-11-12T05:06:42.864Z,7.70
2022-11-12T05:09:30.560Z,7.70
2022-11-12T05:12:18.563Z,7.70
2022-11-12T05:15:06.061Z,7.60
2022-11-12T05:17:52.941Z,7.60
2022-11-12T05:20:39.947Z,7.60
2022-11-12T05:23:26.749Z,7.60
2022-11-12T05:26:13.660Z,7.60
2022-11-12T05:29:08.449Z,7.50
2022-11-12T05:31:57.352Z,7.50
2022-11-12T05:34:46.263Z,7.50
2022-11-12T05:37:33.143Z,7.50
2022-11-12T05:40:19.828Z,7.50
2022-11-12T05:43:06.936Z,7.50
2022-11-12T05:45:55.194Z,7.50
2022-11-12T05:48:41.954Z,7.50
2022-11-12T05:51:28.728Z,7.50
2022-11-12T05:54:16.074Z,7.50
2022-11-12T05:57:04.076Z,7.50
2022-11-12T05:59:50.642Z,7.40
2022-11-12T06:02:38.804Z,7.40
2022-11-12T06:05:35.471Z,7.50
2022-11-12T06:08:22.666Z,7.50
2022-11-12T06:11:09.572Z,7.50
2022-11-12T06:13:56.490Z,7.40
2022-11-12T06:16:43.166Z,7.40
2022-11-12T06:19:31.472Z,7.40
2022-11-12T06:22:18.467Z,7.40
2022-11-12T06:25:06.402Z,7.30
2022-11-12T06:27:54.023Z,7.30
2022-11-12T06:30:41.105Z,7.30
2022-11-12T06:33:28.251Z,7.30
2022-11-12T06:36:19.786Z,7.30
2022-11-12T06:39:07.294Z,7.30
2022-11-12T06:41:55.052Z,7.30
2022-11-12T06:44:42.279Z,7.30
2022-11-12T06:47:29.428Z,7.30
2022-11-12T06:50:17.190Z,7.30
2022-11-12T06:53:06.328Z,7.30
2022-11-12T06:55:53.614Z,7.30
2022-11-12T06:58:40.761Z,7.30
2022-11-12T07:01:27.904Z,7.30
2022-11-12T07:04:15.030Z,7.30
2022-11-12T07:07:06.740Z,7.30
2022-11-12T07:09:58.443Z,7.30
2022-11-12T07:12:50.449Z,7.30
2022-11-12T07:15:40.010Z,7.30
2022-11-12T07:18:28.192Z,7.30
2022-11-12T07:21:17.346Z,7.30
2022-11-12T07:24:04.163Z,7.30
2022-11-12T07:26:52.638Z,7.30
2022-11-12T07:29:48.141Z,7.30
2022-11-12T07:32:41.932Z,7.30
2022-11-12T07:35:31.076Z,7.30
2022-11-12T07:38:18.034Z,7.30
2022-11-12T07:41:07.292Z,7.40
2022-11-12T07:43:55.427Z,7.40
2022-11-12T07:46:42.387Z,7.40
2022-11-12T07:49:29.169Z,7.40
2022-11-12T07:52:16.333Z,7.40
2022-11-12T07:55:03.217Z,7.40
2022-11-12T07:57:50.041Z,7.40
2022-11-12T08:00:38.193Z,7.40
2022-11-12T08:03:25.918Z,7.50
2022-11-12T08:06:12.855Z,7.50
2022-11-12T08:09:01.593Z,7.50
2022-11-12T08:11:48.431Z,7.60
2022-11-12T08:14:35.298Z,7.60
2022-11-12T08:17:23.392Z,7.60
2022-11-12T08:20:11.015Z,7.70
2022-11-12T08:23:01.223Z,7.70
2022-11-12T08:25:48.399Z,7.60
2022-11-12T08:28:37.467Z,7.60
2022-11-12T08:31:24.484Z,7.60
2022-11-12T08:34:21.512Z,7.60
2022-11-12T08:37:09.153Z,7.70
2022-11-12T08:39:56.419Z,7.70
2022-11-12T08:42:43.364Z,7.80
2022-11-12T08:45:32.679Z,7.90
2022-11-12T08:48:19.678Z,8.00
2022-11-12T08:51:08.433Z,8.10
2022-11-12T08:53:55.366Z,8.10
2022-11-12T08:56:42.092Z,8.20
2022-11-12T08:59:28.853Z,8.30
2022-11-12T09:02:15.550Z,8.30
2022-11-12T09:05:04.162Z,8.30
2022-11-12T09:07:58.215Z,8.30
2022-11-12T09:10:45.532Z,8.40
2022-11-12T09:13:33.898Z,8.40
2022-11-12T09:16:21.472Z,8.40
2022-11-12T09:19:08.778Z,8.40
2022-11-12T09:21:55.671Z,8.40
2022-11-12T09:24:43.806Z,8.30
2022-11-12T09:27:31.026Z,8.30
2022-11-12T09:30:17.847Z,8.30
2022-11-12T09:33:05.310Z,8.30
2022-11-12T09:35:52.877Z,8.30
2022-11-12T09:38:40.284Z,8.30
2022-11-12T09:41:38.209Z,8.40
2022-11-12T09:44:25.681Z,8.40
2022-11-12T09:47:20.105Z,8.50
2022-11-12T09:50:21.105Z,8.50
2022-11-12T09:53:15.656Z,8.50
2022-11-12T09:56:06.572Z,8.40
2022-11-12T09:58:55.716Z,8.40
2022-11-12T10:01:50.409Z,8.40
2022-11-12T10:05:07.766Z,8.30
2022-11-12T10:08:06.627Z,8.30
2022-11-12T10:11:03.458Z,8.20
2022-11-12T10:14:02.036Z,8.20
2022-11-12T10:16:57.825Z,8.10
2022-11-12T10:20:00.528Z,8.20
2022-11-12T10:23:12.176Z,8.10
2022-11-12T10:26:02.379Z,8.20
2022-11-12T10:28:51.737Z,8.20
2022-11-12T10:31:41.544Z,8.30
2022-11-12T10:34:28.872Z,8.30
2022-11-12T10:37:21.634Z,8.40
2022-11-12T10:40:29.279Z,8.50
2022-11-12T10:43:24.844Z,8.50
2022-11-12T10:46:20.770Z,8.60
2022-11-12T10:49:25.706Z,8.60
2022-11-12T10:52:23.212Z,8.60
2022-11-12T10:55:18.471Z,8.70
2022-11-12T10:58:16.774Z,8.70
2022-11-12T11:01:05.447Z,8.80
2022-11-12T11:03:57.718Z,8.80
2022-11-12T11:06:48.124Z,8.90
2022-11-12T11:09:35.989Z,9.00
2022-11-12T11:12:28.997Z,9.00
2022-11-12T11:15:21.450Z,9.00
2022-11-12T11:18:11.933Z,9.10
2022-11-12T11:21:13.758Z,9.10
2022-11-12T11:24:16.012Z,9.00
2022-11-12T11:27:07.333Z,9.00
2022-11-12T11:30:04.151Z,8.90
2022-11-12T11:33:12.342Z,8.90
2022-11-12T11:36:13.928Z,8.90
2022-11-12T11:39:08.288Z,8.90
2022-11-12T11:42:08.985Z,8.90
2022-11-12T11:45:09.005Z,8.90
2022-11-12T11:48:03.380Z,8.80
2022-11-12T11:51:00.140Z,8.80
2022-11-12T11:54:00.370Z,8.80
2022-11-12T11:56:52.501Z,8.80
2022-11-12T11:59:50.987Z,8.80
2022-11-12T12:02:57.464Z,8.90
2022-11-12T12:05:49.848Z,9.00
2022-11-12T12:08:48.939Z,9.00
2022-11-12T12:11:43.957Z,9.10
2022-11-12T12:14:49.931Z,9.10
2022-11-12T12:17:51.715Z,9.20
2022-11-12T12:20:49.407Z,9.20
2022-11-12T12:23:42.969Z,9.20
2022-11-12T12:26:38.224Z,9.20
2022-11-12T12:29:32.319Z,9.20
2022-11-12T12:32:24.754Z,9.20
2022-11-12T12:35:23.275Z,9.10
2022-11-12T12:38:19.277Z,9.00
2022-11-12T12:41:15.657Z,8.90
2022-11-12T12:44:05.430Z,8.70
2022-11-12T12:46:57.543Z,8.60
2022-11-12T12:49:47.841Z,8.60
2022-11-12T12:53:03.748Z,8.60
2022-11-12T12:55:51.748Z,8.50
2022-11-12T12:58:47.197Z,8.60
2022-11-12T13:01:37.583Z,8.60
2022-11-12T13:04:57.383Z,8.50
2022-11-12T13:07:48.377Z,8.60
2022-11-12T13:10:54.022Z,8.60
2022-11-12T13:13:40.793Z,8.60
2022-11-12T13:16:59.271Z,8.70
2022-11-12T13:19:49.607Z,8.70
2022-11-12T13:22:52.147Z,8.70
2022-11-12T13:25:39.952Z,8.70
2022-11-12T13:28:27.078Z,8.70
2022-11-12T13:31:29.359Z,8.70
2022-11-12T13:34:22.862Z,8.70
2022-11-12T13:37:20.504Z,8.70
2022-11-12T13:40:12.958Z,8.70
2022-11-12T13:43:05.354Z,8.70
2022-11-12T13:45:58.363Z,8.60
2022-11-12T13:48:49.745Z,8.60
2022-11-12T13:51:40.769Z,8.60
2022-11-12T13:54:34.414Z,8.60
2022-11-12T13:57:32.682Z,8.60
2022-11-12T14:00:26.125Z,8.60
2022-11-12T14:03:18.349Z,8.60
2022-11-12T14:06:15.163Z,8.60
2022-11-12T14:09:25.209Z,8.60
2022-11-12T14:12:25.192Z,8.50
2022-11-12T14:15:27.434Z,8.50
2022-11-12T14:18:26.076Z,8.40
2022-11-12T14:21:17.311Z,8.40
2022-11-12T14:24:05.930Z,8.40
2022-11-12T14:26:52.925Z,8.40
2022-11-12T14:29:43.493Z,8.40
2022-11-12T14:32:38.525Z,8.40
2022-11-12T14:35:35.075Z,8.40
2022-11-12T14:38:24.731Z,8.40
2022-11-12T14:41:18.917Z,8.30
2022-11-12T14:44:13.192Z,8.30
2022-11-12T14:47:01.944Z,8.30
2022-11-12T14:49:51.162Z,8.30
2022-11-12T14:52:42.879Z,8.30
2022-11-12T14:55:34.349Z,8.30
2022-11-12T14:58:23.901Z,8.20
2022-11-12T15:02:14.257Z,8.20
2022-11-12T15:04:39.055Z,8.20
2022-11-12T15:07:30.432Z,8.20
2022-11-12T15:10:33.282Z,8.20
2022-11-12T15:13:22.845Z,8.20
2022-11-12T15:16:10.749Z,8.20
2022-11-12T15:19:20.144Z,8.20
2022-11-12T15:22:07.041Z,8.20
2022-11-12T15:24:55.752Z,8.20
2022-11-12T15:27:43.959Z,8.20
2022-11-12T15:30:32.257Z,8.10
2022-11-12T15:33:22.858Z,8.10
2022-11-12T15:36:17.868Z,8.10
2022-11-12T15:39:05.016Z,8.10
2022-11-12T15:42:00.735Z,8.10
2022-11-12T15:44:47.725Z,8.00
2022-11-12T15:47:34.763Z,8.10
2022-11-12T15:50:23.928Z,8.00
2022-11-12T15:53:10.713Z,8.00
2022-11-12T15:55:58.142Z,8.00
2022-11-12T15:58:46.560Z,8.00
2022-11-12T16:01:33.522Z,8.00
2022-11-12T16:04:20.145Z,7.90
2022-11-12T16:07:08.052Z,7.90
2022-11-12T16:09:54.704Z,7.90
2022-11-12T16:12:41.457Z,7.90
2022-11-12T16:15:29.553Z,7.90
2022-11-12T16:18:16.410Z,7.90
2022-11-12T16:21:03.430Z,7.90
2022-11-12T16:23:50.058Z,7.90
2022-11-12T16:26:38.789Z,7.90
2022-11-12T16:29:25.927Z,8.00
2022-11-12T16:32:15.434Z,8.00
2022-11-12T16:35:02.164Z,8.00
2022-11-12T16:37:49.126Z,8.00
2022-11-12T16:40:36.212Z,8.00
2022-11-12T16:43:23.374Z,8.10
2022-11-12T16:46:27.335Z,8.00
2022-11-12T16:49:16.425Z,8.00
2022-11-12T16:52:06.102Z,8.00
2022-11-12T16:54:53.151Z,7.90
2022-11-12T16:57:41.392Z,7.90
2022-11-12T17:00:29.114Z,7.90
2022-11-12T17:03:16.034Z,7.90
2022-11-12T17:06:04.183Z,8.00
2022-11-12T17:08:54.743Z,8.00
2022-11-12T17:11:41.277Z,8.00
2022-11-12T17:14:28.612Z,8.00
2022-11-12T17:17:15.384Z,8.00
2022-11-12T17:20:02.551Z,8.00
2022-11-12T17:22:50.559Z,8.00
2022-11-12T17:25:37.430Z,8.00
2022-11-12T17:28:24.185Z,8.00
2022-11-12T17:31:13.124Z,8.00
2022-11-12T17:33:59.970Z,8.00
2022-11-12T17:36:46.840Z,8.00
2022-11-12T17:39:35.083Z,8.00
2022-11-12T17:42:21.908Z,8.00
2022-11-12T17:45:09.759Z,7.90
2022-11-12T17:47:56.826Z,7.90
2022-11-12T17:50:43.483Z,7.90
2022-11-12T17:53:30.816Z,7.90
2022-11-12T17:56:21.767Z,7.90
2022-11-12T17:59:08.651Z,7.90
2022-11-12T18:01:55.841Z,7.90
2022-11-12T18:04:42.839Z,7.90
2022-11-12T18:07:30.027Z,7.90
2022-11-12T18:10:19.642Z,7.90
2022-11-12T18:13:08.015Z,8.00
2022-11-12T18:15:54.880Z,7.90
2022-11-12T18:18:41.812Z,7.90
2022-11-12T18:21:29.242Z,7.90
2022-11-12T18:24:17.334Z,8.00
2022-11-12T18:27:05.097Z,7.90
2022-11-12T18:29:53.426Z,7.90
2022-11-12T18:32:41.336Z,7.90
2022-11-12T18:35:29.994Z,7.90
2022-11-12T18:38:17.100Z,8.00
2022-11-12T18:41:04.927Z,7.90
2022-11-12T18:43:51.873Z,7.90
2022-11-12T18:46:40.389Z,7.90
2022-11-12T18:49:27.597Z,7.90
2022-11-12T18:52:14.203Z,7.90
2022-11-12T18:55:03.984Z,7.90
2022-11-12T18:57:50.714Z,7.90
2022-11-12T19:00:38.063Z,7.90
2022-11-12T19:03:26.969Z,7.90
2022-11-12T19:06:16.690Z,7.90
2022-11-12T19:09:04.579Z,7.90
2022-11-12T19:11:51.628Z,7.90
2022-11-12T19:14:38.346Z,8.00
2022-11-12T19:17:29.638Z,7.90
2022-11-12T19:20:19.874Z,8.00
2022-11-12T19:23:07.462Z,7.90
2022-11-12T19:25:55.101Z,7.90
2022-11-12T19:28:43.274Z,7.90
2022-11-12T19:31:34.212Z,7.90
2022-11-12T19:34:21.003Z,7.90
2022-11-12T19:37:32.267Z,7.90
2022-11-12T19:40:17.061Z,7.90
2022-11-12T19:43:03.858Z,8.00
2022-11-12T19:45:51.194Z,7.90
2022-11-12T19:48:40.958Z,7.90
2022-11-12T19:51:28.618Z,7.80
2022-11-12T19:54:16.993Z,7.80
2022-11-12T19:57:04.710Z,7.70
2022-11-12T19:59:51.644Z,7.70
2022-11-12T20:02:39.092Z,7.70
2022-11-12T20:05:26.511Z,7.60
2022-11-12T20:08:13.484Z,7.60
2022-11-12T20:11:01.779Z,7.60
2022-11-12T20:13:51.266Z,7.50
2022-11-12T20:16:39.042Z,7.50
2022-11-12T20:19:27.757Z,7.50
2022-11-12T20:22:14.887Z,7.50
2022-11-12T20:25:02.108Z,7.50
2022-11-12T20:27:50.036Z,7.50
2022-11-12T20:30:37.037Z,7.40
2022-11-12T20:33:24.113Z,7.40
2022-11-12T20:36:15.688Z,7.40
2022-11-12T20:39:03.116Z,7.30
2022-11-12T20:41:50.299Z,7.30
2022-11-12T20:44:38.804Z,7.30
2022-11-12T20:47:25.727Z,7.20
2022-11-12T20:50:12.704Z,7.20
2022-11-12T20:53:00.044Z,7.20
2022-11-12T20:55:47.246Z,7.30
2022-11-12T20:58:34.118Z,7.30
2022-11-12T21:01:24.228Z,7.30
2022-11-12T21:04:12.637Z,7.30
2022-11-12T21:07:05.057Z,7.20
2022-11-12T21:09:52.756Z,7.20
2022-11-12T21:12:39.910Z,7.20
2022-11-12T21:15:26.568Z,7.30
2022-11-12T21:18:14.839Z,7.30
2022-11-12T21:21:03.200Z,7.30
2022-11-12T21:23:53.854Z,7.40
2022-11-12T21:26:40.900Z,7.40
2022-11-12T21:29:28.241Z,7.40
2022-11-12T21:32:15.531Z,7.40
2022-11-12T21:35:03.970Z,7.40
2022-11-12T21:37:50.990Z,7.40
2022-11-12T21:40:37.888Z,7.40
2022-11-12T21:43:24.630Z,7.40
2022-11-12T21:46:12.156Z,7.40
2022-11-12T21:48:59.255Z,7.40
2022-11-12T21:51:47.728Z,7.50
2022-11-12T21:54:35.420Z,7.40
2022-11-12T21:57:22.601Z,7.40
2022-11-12T22:00:39.782Z,7.40
2022-11-12T22:03:17.858Z,7.40
2022-11-12T22:06:04.934Z,7.40
2022-11-12T22:08:54.322Z,7.40
2022-11-12T22:11:41.110Z,7.40
2022-11-12T22:14:28.495Z,7.40
2022-11-12T22:17:17.202Z,7.40
2022-11-12T22:20:05.087Z,7.40
2022-11-12T22:22:53.147Z,7.40
2022-11-12T22:25:42.661Z,7.40
2022-11-12T22:28:30.657Z,7.40
2022-11-12T22:31:20.517Z,7.30
2022-11-12T22:34:08.169Z,7.30
2022-11-12T22:36:54.949Z,7.30
2022-11-12T22:39:41.833Z,7.20
2022-11-12T22:42:32.950Z,7.20
2022-11-12T22:45:20.047Z,7.20
2022-11-12T22:48:07.464Z,7.20
2022-11-12T22:50:59.888Z,7.20
2022-11-12T22:53:47.435Z,7.20
2022-11-12T22:56:34.506Z,7.20
2022-11-12T22:59:22.736Z,7.10
2022-11-12T23:02:09.790Z,7.10
2022-11-12T23:04:57.932Z,7.00
2022-11-12T23:07:45.011Z,7.00
2022-11-12T23:10:32.316Z,7.00
2022-11-12T23:13:20.319Z,7.00
2022-11-12T23:16:11.718Z,7.00
2022-11-12T23:18:59.473Z,7.00
2022-11-12T23:21:46.334Z,7.00
2022-11-12T23:24:33.552Z,7.00
2022-11-12T23:27:20.859Z,7.00
2022-11-12T23:30:09.040Z,7.00
2022-11-12T23:32:57.052Z,7.00
2022-11-12T23:35:44.105Z,7.00
2022-11-12T23:38:33.531Z,7.00
2022-11-12T23:41:24.547Z,7.10
2022-11-12T23:44:11.364Z,7.10
2022-11-12T23:46:57.961Z,7.10
2022-11-12T23:49:46.404Z,7.10
2022-11-12T23:52:36.822Z,7.10
2022-11-12T23:55:23.946Z,7.10
2022-11-12T23:58:11.108Z,7.10
